Time;durP1;ratioP1;P1;durP2;ratioP2;P2;SDS_P1;SDS_P2;PMS_P1;PMS_P2;Temp;Humidity;BMP_temperature;BMP_pressure;BME280_temperature;BME280_humidity;BME280_pressure;Samples;Min_cycle;Max_cycle;Signal;HPM_P1;HPM_P2
2021/06/21 00:00:19;;;;;;;;;5.00;4.00;;;;;22.96;100.00;100273.09;4940842;28;45356;-71
2021/06/21 00:02:44;;;;;;;;;4.00;4.00;;;;;22.94;100.00;100261.72;4923827;28;45411;-71
2021/06/21 00:08:32;;;;;;;;;4.00;4.00;;;;;22.89;100.00;100248.75;4940503;28;45752;-70
2021/06/21 00:10:57;;;;;;;;;4.00;4.00;;;;;22.86;100.00;100240.97;4940958;28;45277;-70
2021/06/21 00:13:22;;;;;;;;;4.75;4.75;;;;;22.83;100.00;100235.00;4941099;28;45364;-70
2021/06/21 00:15:48;;;;;;;;;3.00;3.00;;;;;22.89;100.00;100250.56;4940929;28;45366;-70
2021/06/21 00:18:14;;;;;;;;;4.25;4.25;;;;;22.80;100.00;100238.72;4940793;28;46223;-70
2021/06/21 00:24:02;;;;;;;;;4.00;4.00;;;;;22.79;100.00;100245.00;4940676;28;45396;-70
2021/06/21 00:26:27;;;;;;;;;5.25;5.25;;;;;22.81;100.00;100258.19;4940726;28;45504;-70
2021/06/21 00:28:53;;;;;;;;;3.75;3.75;;;;;22.77;100.00;100254.91;4940607;28;46150;-70
2021/06/21 00:31:18;;;;;;;;;5.00;5.00;;;;;22.78;100.00;100253.09;4940729;28;45388;-70
2021/06/21 00:33:43;;;;;;;;;5.25;4.25;;;;;22.80;100.00;100265.34;4940388;28;45331;-72
2021/06/21 00:36:09;;;;;;;;;4.25;4.25;;;;;22.75;100.00;100251.50;4940568;28;45339;-71
2021/06/21 00:38:34;;;;;;;;;4.00;4.00;;;;;22.81;100.00;100268.84;4940243;28;46859;-72
2021/06/21 00:41:00;;;;;;;;;4.00;4.00;;;;;22.75;100.00;100256.00;4940373;28;45313;-69
2021/06/21 00:43:26;;;;;;;;;5.00;5.00;;;;;22.81;100.00;100258.19;4940704;28;45422;-70
2021/06/21 00:45:52;;;;;;;;;5.25;5.00;;;;;22.78;100.00;100253.94;4940752;28;45340;-70
2021/06/21 00:48:17;;;;;;;;;5.00;5.00;;;;;22.77;100.00;100254.06;4940344;28;45568;-70
2021/06/21 00:54:18;;;;;;;;;5.50;4.75;;;;;22.56;100.00;100228.03;4939860;28;45286;-71
2021/06/21 00:56:43;;;;;;;;;4.50;4.50;;;;;22.72;100.00;100262.38;4940639;28;45422;-68
2021/06/21 00:59:09;;;;;;;;;5.00;5.00;;;;;22.76;100.00;100266.53;4939852;28;46176;-71
2021/06/21 01:01:34;;;;;;;;;5.00;5.00;;;;;22.76;100.00;100260.34;4940223;28;45280;-71
2021/06/21 01:04:00;;;;;;;;;5.00;4.25;;;;;22.68;100.00;100252.94;4940189;28;45295;-70
2021/06/21 01:06:27;;;;;;;;;5.25;5.00;;;;;22.73;100.00;100263.25;4940298;28;45364;-71
2021/06/21 01:08:53;;;;;;;;;5.50;5.00;;;;;22.68;100.00;100263.56;4939609;28;46208;-70
2021/06/21 01:11:18;;;;;;;;;5.00;5.00;;;;;22.68;100.00;100257.41;4939756;28;45467;-70
2021/06/21 01:13:56;;;;;;;;;5.25;5.25;;;;;22.69;100.00;100259.94;4940110;28;45349;-70
2021/06/21 01:16:26;;;;;;;;;4.00;4.00;;;;;22.62;100.00;100248.88;4940250;28;45403;-70
2021/06/21 01:19:19;;;;;;;;;4.25;3.75;;;;;22.66;100.00;100262.00;4939767;28;48550;-70
2021/06/21 01:22:06;;;;;;;;;4.75;4.75;;;;;22.63;100.00;100260.38;4880507;29;45486;-70
2021/06/21 01:24:31;;;;;;;;;4.50;4.50;;;;;22.60;100.00;100247.28;4880893;29;45518;-70
2021/06/21 01:27:20;;;;;;;;;5.75;5.00;;;;;22.55;100.00;100246.78;4865031;29;45583;-70
2021/06/21 01:30:01;;;;;;;;;4.75;4.75;;;;;22.54;100.00;100255.72;4880634;29;46807;-69
2021/06/21 01:32:53;;;;;;;;;6.25;5.25;;;;;22.54;100.00;100261.03;4880336;29;45447;-71
2021/06/21 01:35:33;;;;;;;;;4.25;4.25;;;;;22.52;100.00;100269.13;4880360;29;45297;-70
2021/06/21 01:38:01;;;;;;;;;4.00;4.00;;;;;22.50;100.00;100265.75;4880864;29;45480;-69
2021/06/21 01:40:30;;;;;;;;;5.25;4.75;;;;;22.45;100.00;100261.72;4880287;29;46710;-70
2021/06/21 01:43:01;;;;;;;;;3.25;3.00;;;;;22.47;100.00;100270.44;4880586;29;45385;-70
2021/06/21 01:45:28;;;;;;;;;5.75;5.75;;;;;22.42;100.00;100261.94;4880306;29;45309;-70
2021/06/21 01:47:54;;;;;;;;;4.75;4.75;;;;;22.47;100.00;100265.97;4880729;29;45536;-70
2021/06/21 01:50:22;;;;;;;;;5.50;5.00;;;;;22.44;100.00;100260.03;4880244;29;46182;-70
2021/06/21 01:52:56;;;;;;;;;5.25;4.75;;;;;22.53;100.00;100270.84;4880108;29;45642;-71
2021/06/21 01:55:25;;;;;;;;;6.75;5.75;;;;;22.52;100.00;100270.94;4880046;29;45349;-70
2021/06/21 01:57:51;;;;;;;;;4.50;4.50;;;;;22.42;100.00;100256.63;4885292;28;45405;-70
2021/06/21 02:00:19;;;;;;;;;4.75;4.75;;;;;22.45;100.00;100256.41;4939365;28;46550;-71
2021/06/21 02:02:48;;;;;;;;;6.00;5.00;;;;;22.53;100.00;100270.00;4939095;28;45421;-70
2021/06/21 02:05:15;;;;;;;;;5.00;4.00;;;;;22.48;100.00;100266.81;4938438;28;45292;-71
2021/06/21 02:07:44;;;;;;;;;6.75;6.75;;;;;22.44;100.00;100271.50;4939239;28;45368;-70
2021/06/21 02:10:12;;;;;;;;;4.75;4.75;;;;;22.42;100.00;100283.22;4938605;28;45637;-70
2021/06/21 02:12:38;;;;;;;;;5.00;5.00;;;;;22.40;100.00;100293.09;4938944;28;45336;-71
2021/06/21 02:15:05;;;;;;;;;6.00;5.50;;;;;22.39;100.00;100291.38;4939317;28;45369;-71
2021/06/21 02:17:31;;;;;;;;;4.00;4.00;;;;;22.24;100.00;100280.03;4939245;28;45376;-70
2021/06/21 02:19:58;;;;;;;;;5.00;5.00;;;;;22.20;100.00;100295.38;4938589;28;46513;-70
2021/06/21 02:22:25;;;;;;;;;5.75;5.50;;;;;22.08;100.00;100282.91;4938874;28;45269;-69
2021/06/21 02:24:54;;;;;;;;;7.00;6.00;;;;;21.96;100.00;100273.09;4939155;28;45397;-70
2021/06/21 02:27:20;;;;;;;;;6.50;6.50;;;;;21.92;100.00;100279.56;4939110;28;45348;-70
2021/06/21 02:29:47;;;;;;;;;5.75;5.75;;;;;21.81;100.00;100268.84;4938871;28;45478;-71
2021/06/21 02:32:13;;;;;;;;;7.00;6.75;;;;;21.77;100.00;100276.16;4938631;28;45583;-71
2021/06/21 02:34:39;;;;;;;;;6.50;6.50;;;;;21.67;100.00;100267.94;4921809;28;45325;-71
2021/06/21 02:37:05;;;;;;;;;7.75;7.00;;;;;21.70;100.00;100291.66;4938934;28;45389;-70
2021/06/21 02:39:30;;;;;;;;;6.00;6.00;;;;;21.70;100.00;100309.41;4938731;28;46211;-70
2021/06/21 02:41:56;;;;;;;;;6.50;6.50;;;;;21.63;100.00;100300.16;4938515;28;45304;-70
2021/06/21 02:44:21;;;;;;;;;5.75;5.75;;;;;21.59;100.00;100310.13;4938793;28;45514;-70
2021/06/21 02:46:47;;;;;;;;;5.25;5.25;;;;;21.50;100.00;100309.88;4939122;28;45355;-69
2021/06/21 02:49:12;;;;;;;;;5.75;5.25;;;;;21.45;100.00;100306.69;4938647;28;46304;-71
2021/06/21 02:55:08;;;;;;;;;4.50;4.25;;;;;21.38;100.00;100306.25;4938759;28;45390;-70
2021/06/21 02:57:49;;;;;;;;;4.75;4.75;;;;;21.30;100.00;100295.28;4938691;28;45216;-70
2021/06/21 03:00:15;;;;;;;;;3.50;3.50;;;;;21.26;100.00;100291.97;4938359;28;47264;-70
2021/06/21 03:02:42;;;;;;;;;4.25;3.75;;;;;21.28;100.00;100310.47;4938270;28;45332;-70
2021/06/21 03:05:08;;;;;;;;;2.50;2.50;;;;;21.21;100.00;100325.06;4938440;28;45238;-71
2021/06/21 03:07:36;;;;;;;;;3.75;3.25;;;;;21.09;100.00;100316.94;4938520;28;45520;-70
2021/06/21 03:10:03;;;;;;;;;3.50;3.50;;;;;21.04;100.00;100323.47;4938037;28;45771;-70
2021/06/21 03:12:29;;;;;;;;;4.75;4.75;;;;;20.94;100.00;100323.22;4921093;28;45607;-70
2021/06/21 03:14:55;;;;;;;;;3.25;3.25;;;;;20.94;100.00;100319.72;4938245;28;45373;-70
2021/06/21 03:17:22;;;;;;;;;4.25;4.25;;;;;20.91;100.00;100330.53;4940544;28;45432;-69
2021/06/21 03:19:49;;;;;;;;;3.75;3.75;;;;;20.82;100.00;100317.84;4941319;28;45534;-70
2021/06/21 03:22:18;;;;;;;;;4.00;3.00;;;;;20.81;100.00;100324.94;4941521;28;45484;-70
2021/06/21 03:24:43;;;;;;;;;4.00;3.00;;;;;20.78;100.00;100323.34;4941546;28;45485;-70
2021/06/21 03:27:09;;;;;;;;;3.75;3.75;;;;;20.68;100.00;100318.72;4941608;28;45631;-70
2021/06/21 03:29:37;;;;;;;;;3.00;3.00;;;;;20.70;100.00;100319.47;4941653;28;45892;-70
2021/06/21 03:32:33;;;;;;;;;5.25;5.00;;;;;20.76;100.00;100324.38;4941226;28;45562;-70
2021/06/21 03:35:01;;;;;;;;;5.50;4.00;;;;;20.74;100.00;100327.16;4882143;28;45304;-70
2021/06/21 03:37:27;;;;;;;;;4.25;4.25;;;;;20.69;100.00;100318.63;4882574;29;45373;-70
2021/06/21 03:39:53;;;;;;;;;4.25;3.75;;;;;20.63;100.00;100323.47;4881817;29;48105;-70
2021/06/21 03:42:19;;;;;;;;;3.00;3.00;;;;;20.61;100.00;100318.28;4882220;29;45459;-69
2021/06/21 03:44:45;;;;;;;;;2.50;2.50;;;;;20.61;100.00;100320.91;4882088;29;45423;-70
2021/06/21 03:47:11;;;;;;;;;4.00;3.50;;;;;20.56;100.00;100304.41;4882060;29;45340;-70
2021/06/21 03:55:44;;;;;;;;;3.00;3.00;;;;;20.70;100.00;100335.41;4881926;29;45365;-71
2021/06/21 03:58:10;;;;;;;;;5.75;5.75;;;;;20.68;100.00;100327.53;4866283;29;45377;-71
2021/06/21 04:00:37;;;;;;;;;3.75;3.75;;;;;20.67;100.00;100330.28;4881623;29;47431;-71
2021/06/21 04:03:03;;;;;;;;;4.75;3.50;;;;;20.65;100.00;100335.69;4882137;29;45347;-70
2021/06/21 04:05:29;;;;;;;;;4.75;4.50;;;;;20.50;100.00;100318.06;4881865;29;45363;-70
2021/06/21 04:07:55;;;;;;;;;6.00;4.75;;;;;20.59;100.00;100341.34;4881876;29;45306;-70
2021/06/21 04:10:23;;;;;;;;;4.75;3.75;;;;;20.56;100.00;100341.56;4882967;29;46550;-70
2021/06/21 04:12:51;;;;;;;;;5.00;4.25;;;;;20.59;100.00;100338.69;4915993;28;45423;-70
2021/06/21 04:15:28;;;;;;;;;5.00;4.25;;;;;20.56;100.00;100343.34;4921567;28;45375;-70
2021/06/21 04:17:53;;;;;;;;;4.25;4.25;;;;;20.51;100.00;100335.69;4921743;28;45407;-70
2021/06/21 04:20:19;;;;;;;;;5.75;4.25;;;;;20.59;100.00;100349.31;4921557;28;46639;-70
2021/06/21 04:22:46;;;;;;;;;6.00;5.75;;;;;20.60;100.00;100350.19;4921517;28;45265;-71
2021/06/21 04:25:15;;;;;;;;;5.00;5.00;;;;;20.67;100.00;100356.81;4921647;28;45255;-70
2021/06/21 04:27:40;;;;;;;;;3.75;3.50;;;;;20.70;100.00;100351.31;4921313;28;45513;-70
2021/06/21 04:30:12;;;;;;;;;5.00;5.00;;;;;20.74;100.00;100360.78;4920658;28;45951;-71
2021/06/21 04:32:38;;;;;;;;;5.25;5.00;;;;;20.71;100.00;100356.53;4921088;28;45520;-70
2021/06/21 04:35:06;;;;;;;;;5.00;5.00;;;;;20.70;100.00;100364.59;4920942;28;45399;-71
2021/06/21 04:37:32;;;;;;;;;5.00;5.00;;;;;20.67;100.00;100349.72;4921571;28;45297;-71
2021/06/21 04:39:57;;;;;;;;;5.50;5.00;;;;;20.75;100.00;100359.84;4920937;28;46487;-70
2021/06/21 04:42:23;;;;;;;;;5.00;5.00;;;;;20.75;100.00;100349.22;4920927;28;45382;-71
2021/06/21 04:44:48;;;;;;;;;5.50;5.25;;;;;20.80;100.00;100357.75;4921348;28;45340;-73
2021/06/21 04:47:14;;;;;;;;;4.50;4.50;;;;;20.84;100.00;100356.63;4921213;28;45472;-73
2021/06/21 04:49:39;;;;;;;;;5.00;5.00;;;;;20.87;100.00;100356.44;4920553;28;46952;-73
2021/06/21 04:55:27;;;;;;;;;4.50;4.00;;;;;20.83;100.00;100344.31;4920847;28;45338;-72
2021/06/21 04:57:52;;;;;;;;;6.75;4.75;;;;;20.88;100.00;100359.94;4920923;28;45484;-72
2021/06/21 05:00:20;;;;;;;;;3.75;3.25;;;;;20.93;100.00;100363.13;4920473;28;46541;-72
2021/06/21 05:02:48;;;;;;;;;4.25;4.25;;;;;20.99;100.00;100373.34;4920543;28;45331;-72
2021/06/21 05:05:14;;;;;;;;;7.25;4.75;;;;;20.98;100.00;100363.69;4920803;28;45454;-73
2021/06/21 05:07:40;;;;;;;;;6.50;6.50;;;;;21.10;100.00;100379.72;4920735;28;45482;-73
2021/06/21 05:10:08;;;;;;;;;4.00;4.00;;;;;21.19;100.00;100380.06;4920345;28;46300;-73
2021/06/21 05:12:33;;;;;;;;;4.50;4.50;;;;;21.15;100.00;100374.09;4920431;28;45265;-73
2021/06/21 05:14:59;;;;;;;;;5.50;5.50;;;;;21.21;100.00;100372.84;4920775;28;45337;-73
2021/06/21 05:17:24;;;;;;;;;6.00;6.00;;;;;21.20;100.00;100371.16;4921033;28;45223;-72
2021/06/21 05:19:49;;;;;;;;;6.00;6.00;;;;;21.21;100.00;100391.44;4920523;28;46565;-72
2021/06/21 05:25:37;;;;;;;;;6.25;5.50;;;;;21.19;100.00;100394.19;4920523;28;45371;-70
2021/06/21 05:28:03;;;;;;;;;6.75;5.00;;;;;21.15;100.00;100391.84;4920910;28;45405;-70
2021/06/21 05:30:29;;;;;;;;;6.75;6.00;;;;;21.07;100.00;100393.19;4920174;28;47494;-70
2021/06/21 05:32:55;;;;;;;;;6.25;6.00;;;;;21.01;100.00;100398.84;4920489;28;45336;-71
2021/06/21 05:35:21;;;;;;;;;5.50;5.50;;;;;20.95;100.00;100395.75;4920072;28;45378;-71
2021/06/21 05:37:48;;;;;;;;;6.00;5.50;;;;;20.86;100.00;100389.22;4920262;28;45539;-72
2021/06/21 05:40:15;;;;;;;;;7.00;5.50;;;;;20.84;100.00;100396.44;4919827;28;46057;-71
2021/06/21 05:42:40;;;;;;;;;7.25;6.50;;;;;20.77;100.00;100401.25;4920180;28;45636;-72
2021/06/21 05:45:07;;;;;;;;;7.00;6.25;;;;;20.72;100.00;100394.53;4920127;28;45391;-71
2021/06/21 05:47:32;;;;;;;;;6.50;6.50;;;;;20.69;100.00;100392.06;4920608;28;45311;-71
2021/06/21 05:49:58;;;;;;;;;7.50;7.25;;;;;20.66;100.00;100392.25;4919796;28;47240;-71
2021/06/21 05:55:44;;;;;;;;;7.50;6.75;;;;;20.74;100.00;100403.22;4919889;28;45312;-71
2021/06/21 05:58:10;;;;;;;;;7.75;7.25;;;;;20.73;100.00;100409.50;4920450;28;45377;-72
2021/06/21 06:00:35;;;;;;;;;7.25;7.00;;;;;20.82;100.00;100421.31;4919736;28;45977;-71
2021/06/21 06:03:01;;;;;;;;;7.75;7.50;;;;;20.84;100.00;100412.34;4919963;28;45365;-70
2021/06/21 06:05:27;;;;;;;;;5.50;5.50;;;;;20.92;100.00;100420.69;4918513;28;45428;-71
2021/06/21 06:11:14;;;;;;;;;6.00;6.00;;;;;21.08;100.00;100428.53;4926881;28;45811;-71
2021/06/21 06:13:39;;;;;;;;;6.75;6.75;;;;;21.12;100.00;100439.81;4919605;28;45376;-71
2021/06/21 06:16:05;;;;;;;;;7.00;7.00;;;;;21.09;100.00;100441.72;4919744;28;45318;-71
2021/06/21 06:18:30;;;;;;;;;6.75;6.00;;;;;21.10;100.00;100445.22;4920134;28;45367;-71
2021/06/21 06:20:56;;;;;;;;;7.00;6.75;;;;;21.11;100.00;100438.97;4919436;28;46189;-71
2021/06/21 06:23:21;;;;;;;;;7.50;6.50;;;;;21.10;100.00;100443.44;4919498;28;45347;-71
2021/06/21 06:25:47;;;;;;;;;5.00;5.00;;;;;21.16;100.00;100443.97;4919662;28;45336;-71
2021/06/21 06:28:12;;;;;;;;;7.50;7.00;;;;;21.16;100.00;100452.78;4920029;28;45282;-72
2021/06/21 06:30:39;;;;;;;;;6.75;6.00;;;;;21.13;100.00;100449.50;4919557;28;45266;-71
2021/06/21 06:33:05;;;;;;;;;7.00;7.00;;;;;21.12;100.00;100445.13;4919750;28;45437;-72
2021/06/21 06:35:30;;;;;;;;;7.00;7.00;;;;;21.13;100.00;100454.78;4919714;28;45375;-71
2021/06/21 06:41:17;;;;;;;;;5.75;5.25;;;;;21.05;100.00;100452.63;4919374;28;45420;-71
2021/06/21 06:43:43;;;;;;;;;8.75;8.00;;;;;21.05;100.00;100450.84;4919547;28;45416;-72
2021/06/21 06:46:09;;;;;;;;;6.00;5.75;;;;;21.08;100.00;100444.47;4919638;28;45360;-72
2021/06/21 06:48:34;;;;;;;;;5.00;5.00;;;;;21.10;100.00;100431.94;4934399;28;45523;-72
2021/06/21 06:50:59;;;;;;;;;6.75;6.75;;;;;21.21;100.00;100429.47;4919010;28;46057;-72
2021/06/21 06:58:50;;;;;;;;;4.50;4.50;;;;;21.56;100.00;100445.84;4922870;28;45381;-70
2021/06/21 07:01:16;;;;;;;;;6.75;6.25;;;;;21.60;100.00;100430.56;4922594;28;45336;-70
2021/06/21 07:03:41;;;;;;;;;6.25;6.00;;;;;21.75;100.00;100442.00;4921818;28;45292;-70
2021/06/21 07:06:07;;;;;;;;;4.50;4.50;;;;;21.85;100.00;100435.13;4922015;28;45505;-71
2021/06/21 07:08:33;;;;;;;;;7.00;6.50;;;;;21.97;100.00;100442.28;4922150;28;45266;-71
2021/06/21 07:10:58;;;;;;;;;7.00;6.00;;;;;22.10;100.00;100452.97;4921609;28;46559;-71
2021/06/21 07:13:24;;;;;;;;;6.00;5.50;;;;;22.10;100.00;100448.50;4921833;28;45341;-71
2021/06/21 07:15:49;;;;;;;;;7.50;5.25;;;;;22.12;100.00;100443.94;4922267;28;45587;-72
2021/06/21 07:18:15;;;;;;;;;5.75;5.75;;;;;22.17;100.00;100441.81;4922114;28;45482;-71
2021/06/21 07:20:40;;;;;;;;;5.25;4.75;;;;;22.28;100.00;100449.94;4921774;28;45350;-71
2021/06/21 07:26:28;;;;;;;;;5.50;5.50;;;;;22.61;100.00;100461.88;4921752;28;45383;-71
2021/06/21 07:28:53;;;;;;;;;5.50;5.00;;;;;22.68;100.00;100462.34;4921976;28;45328;-71
2021/06/21 07:31:19;;;;;;;;;7.00;6.50;;;;;22.72;100.00;100458.50;4921455;28;46035;-71
2021/06/21 07:33:44;;;;;;;;;6.00;6.00;;;;;22.68;100.00;100465.00;4921539;28;45376;-70
2021/06/21 07:36:10;;;;;;;;;6.00;6.00;;;;;22.62;100.00;100463.59;4921375;28;45231;-71
2021/06/21 07:38:36;;;;;;;;;5.50;4.25;;;;;22.55;100.00;100476.47;4921811;28;45488;-71
2021/06/21 07:41:03;;;;;;;;;5.50;5.00;;;;;22.40;100.00;100466.00;4921557;28;46342;-71
2021/06/21 07:43:28;;;;;;;;;5.75;5.50;;;;;22.40;100.00;100480.16;4921247;28;45616;-70
2021/06/21 07:45:53;;;;;;;;;5.50;5.25;;;;;22.38;100.00;100478.56;4921547;28;45363;-71
2021/06/21 07:48:19;;;;;;;;;4.75;4.75;;;;;22.45;100.00;100480.72;4921416;28;45415;-71
2021/06/21 07:50:45;;;;;;;;;4.50;4.50;;;;;22.52;100.00;100484.66;4921196;28;46169;-71
2021/06/21 07:56:32;;;;;;;;;5.00;5.00;;;;;22.64;100.00;100484.81;4921210;28;45377;-71
2021/06/21 07:58:57;;;;;;;;;4.00;4.00;;;;;22.67;100.00;100485.44;4921322;28;45357;-71
2021/06/21 08:01:24;;;;;;;;;4.00;4.00;;;;;22.65;100.00;100492.69;4921300;28;45465;-71
2021/06/21 08:03:49;;;;;;;;;4.75;4.75;;;;;22.65;100.00;100490.03;4919778;28;45533;-71
2021/06/21 08:06:14;;;;;;;;;4.50;4.00;;;;;22.67;100.00;100485.44;4935970;28;45324;-71
2021/06/21 08:08:42;;;;;;;;;5.25;5.25;;;;;22.73;100.00;100481.50;4921342;28;45327;-71
2021/06/21 08:11:09;;;;;;;;;5.25;4.00;;;;;22.86;100.00;100488.56;4920921;28;46134;-71
2021/06/21 08:13:34;;;;;;;;;4.00;4.00;;;;;22.91;100.00;100478.44;4921353;28;45235;-71
2021/06/21 08:16:00;;;;;;;;;4.75;4.00;;;;;23.01;100.00;100493.78;4920801;28;45341;-71
2021/06/21 08:18:25;;;;;;;;;4.75;3.00;;;;;23.08;100.00;100479.06;4919997;28;45557;-71
2021/06/21 08:20:51;;;;;;;;;3.00;3.00;;;;;23.08;100.00;100473.72;4921184;28;45296;-71
2021/06/21 08:26:38;;;;;;;;;2.50;2.00;;;;;23.34;100.00;100487.91;4920954;28;45281;-71
2021/06/21 08:29:04;;;;;;;;;3.00;3.00;;;;;23.40;100.00;100496.28;4921066;28;45274;-71
2021/06/21 08:31:29;;;;;;;;;2.00;2.00;;;;;23.49;100.00;100500.09;4920881;28;46325;-72
2021/06/21 08:33:55;;;;;;;;;2.00;2.00;;;;;23.52;100.00;100499.88;4919451;28;45306;-72
2021/06/21 08:36:20;;;;;;;;;2.25;2.25;;;;;23.45;100.00;100486.16;4920772;28;45332;-72
2021/06/21 08:38:45;;;;;;;;;2.50;2.50;;;;;23.54;100.00;100500.63;4921245;28;45515;-72
2021/06/21 08:41:11;;;;;;;;;2.00;2.00;;;;;23.50;100.00;100497.31;4920498;28;46571;-72
2021/06/21 08:43:37;;;;;;;;;1.00;1.00;;;;;23.48;100.00;100503.72;4920559;28;45333;-71
2021/06/21 08:46:03;;;;;;;;;3.00;2.75;;;;;23.52;100.00;100500.72;4920662;28;45383;-71
2021/06/21 08:48:31;;;;;;;;;4.25;3.75;;;;;23.50;100.00;100491.13;4921206;28;45339;-72
2021/06/21 08:50:58;;;;;;;;;3.00;3.00;;;;;23.62;100.00;100503.63;4920686;28;45391;-71
2021/06/21 08:56:45;;;;;;;;;2.50;2.00;;;;;23.87;100.00;100500.03;4920441;28;45332;-71
2021/06/21 08:59:11;;;;;;;;;3.25;3.00;;;;;23.98;100.00;100508.06;4920921;28;45336;-71
2021/06/21 09:01:40;;;;;;;;;5.25;4.75;;;;;24.06;100.00;100503.03;4920323;28;47482;-71
2021/06/21 09:04:09;;;;;;;;;3.50;3.00;;;;;24.17;100.00;100502.22;4920285;28;45317;-71
2021/06/21 09:06:38;;;;;;;;;3.00;3.00;;;;;24.30;100.00;100503.03;4920679;28;45399;-71
2021/06/21 09:09:04;;;;;;;;;2.00;2.00;;;;;24.42;100.00;100498.59;4920533;28;45312;-71
2021/06/21 09:11:45;;;;;;;;;2.75;2.75;;;;;24.51;100.00;100508.59;4921874;28;47008;-71
2021/06/21 09:14:26;;;;;;;;;4.00;3.00;;;;;24.65;100.00;100508.34;4939274;28;45650;-71
2021/06/21 09:16:54;;;;;;;;;3.00;1.75;;;;;24.69;100.00;100492.97;4939458;28;45440;-71
2021/06/21 09:19:19;;;;;;;;;2.75;2.00;;;;;24.80;100.00;100502.81;4939537;28;45383;-71
2021/06/21 09:21:45;;;;;;;;;3.00;3.00;;;;;25.05;100.00;100510.66;4939647;28;46441;-72
2021/06/21 09:24:19;;;;;;;;;3.00;2.25;;;;;25.18;100.00;100510.56;4939485;28;45334;-71
2021/06/21 09:26:46;;;;;;;;;2.00;1.00;;;;;25.33;100.00;100510.16;4939296;28;45360;-71
2021/06/21 09:29:12;;;;;;;;;3.25;2.25;;;;;25.44;100.00;100503.13;4939393;28;45609;-72
2021/06/21 09:31:52;;;;;;;;;3.00;3.00;;;;;25.57;100.00;100502.03;4938885;28;47334;-72
2021/06/21 09:34:19;;;;;;;;;2.50;2.50;;;;;25.69;100.00;100516.25;4921950;28;45481;-71
2021/06/21 09:36:45;;;;;;;;;4.00;4.00;;;;;25.65;100.00;100480.00;4938849;28;45446;-72
2021/06/21 09:39:17;;;;;;;;;3.75;3.00;;;;;25.98;100.00;100513.88;4939115;28;45575;-72
2021/06/21 09:41:43;;;;;;;;;2.25;2.25;;;;;26.10;100.00;100520.91;4938675;28;45405;-72
2021/06/21 09:44:09;;;;;;;;;1.00;1.00;;;;;26.18;100.00;100512.22;4938849;28;45553;-72
2021/06/21 09:46:34;;;;;;;;;3.25;1.25;;;;;26.33;100.00;100526.16;4938952;28;45462;-72
2021/06/21 09:49:00;;;;;;;;;1.00;0.75;;;;;26.45;100.00;100527.84;4938923;28;45397;-71
2021/06/21 09:51:34;;;;;;;;;0.00;0.00;;;;;26.70;100.00;100537.31;4939014;28;45549;-72
2021/06/21 09:57:21;;;;;;;;;0.50;0.00;;;;;27.19;100.00;100527.78;4938700;28;45357;-72
2021/06/21 09:59:48;;;;;;;;;0.00;0.00;;;;;27.50;100.00;100528.63;4938907;28;45391;-72
2021/06/21 10:02:21;;;;;;;;;1.00;0.50;;;;;27.75;100.00;100530.84;4938640;28;46159;-71
2021/06/21 10:04:46;;;;;;;;;0.25;0.25;;;;;27.88;100.00;100531.44;4938610;28;45290;-71
2021/06/21 10:07:34;;;;;;;;;0.00;0.00;;;;;28.19;100.00;100525.97;4938934;28;45350;-71
2021/06/21 10:10:09;;;;;;;;;0.75;0.00;;;;;28.46;100.00;100536.88;4938467;28;45504;-72
2021/06/21 10:12:35;;;;;;;;;1.00;0.00;;;;;28.60;100.00;100546.38;4919472;28;47169;-71
2021/06/21 10:15:01;;;;;;;;;1.25;1.25;;;;;28.57;100.00;100552.88;4919707;28;45443;-71
2021/06/21 10:17:27;;;;;;;;;0.75;0.00;;;;;28.60;100.00;100549.06;4919797;28;45369;-71
2021/06/21 10:19:53;;;;;;;;;1.00;1.00;;;;;28.67;100.00;100536.72;4919587;28;45482;-71
2021/06/21 10:22:21;;;;;;;;;2.00;2.00;;;;;28.68;100.00;100544.66;4919130;28;46214;-71
2021/06/21 10:24:52;;;;;;;;;2.75;2.00;;;;;28.71;100.00;100545.34;4919166;28;45273;-71
2021/06/21 10:27:20;;;;;;;;;5.00;4.00;;;;;28.75;100.00;100538.72;4918546;28;45471;-71
2021/06/21 10:29:47;;;;;;;;;3.00;3.00;;;;;28.78;100.00;100543.81;4919320;28;45240;-71
2021/06/21 10:32:14;;;;;;;;;5.50;4.75;;;;;29.05;100.00;100545.75;4918936;28;46527;-71
2021/06/21 10:34:41;;;;;;;;;6.00;5.50;;;;;29.28;100.00;100539.88;4919141;28;45379;-71
2021/06/21 10:37:20;;;;;;;;;7.00;7.00;;;;;29.59;100.00;100545.00;4919203;28;45309;-71
2021/06/21 10:39:48;;;;;;;;;8.50;7.50;;;;;29.72;100.00;100540.13;4919127;28;45299;-71
2021/06/21 10:42:16;;;;;;;;;1.00;1.00;;;;;29.84;100.00;100543.44;4919325;28;46363;-71
2021/06/21 10:44:45;;;;;;;;;1.00;1.00;;;;;29.88;100.00;100542.16;4918760;28;45376;-71
2021/06/21 10:47:31;;;;;;;;;0.00;0.00;;;;;29.86;100.00;100536.91;4917669;28;45320;-71
2021/06/21 10:50:06;;;;;;;;;1.00;1.00;;;;;29.76;100.00;100532.59;4919456;28;45292;-72
2021/06/21 10:52:34;;;;;;;;;9.00;8.50;;;;;29.65;100.00;100539.03;4919131;28;45581;-71
2021/06/21 10:55:29;;;;;;;;;2.00;2.00;;;;;29.51;100.00;100542.22;4919174;28;45475;-72
2021/06/21 10:57:54;;;;;;;;;1.75;1.00;;;;;29.39;100.00;100546.91;4919118;28;45403;-70
2021/06/21 11:00:22;;;;;;;;;1.75;1.50;;;;;29.35;100.00;100553.56;4919044;28;45475;-72
2021/06/21 11:02:48;;;;;;;;;0.00;0.00;;;;;29.27;100.00;100548.09;4918636;28;45536;-72
2021/06/21 11:05:38;;;;;;;;;1.50;0.50;;;;;29.11;100.00;100542.47;4918692;28;45307;-72
2021/06/21 11:08:13;;;;;;;;;1.75;0.00;;;;;29.23;100.00;100547.53;4918698;28;45438;-72
2021/06/21 11:10:38;;;;;;;;;1.75;1.00;;;;;29.36;100.00;100531.06;4918716;28;45374;-72
2021/06/21 11:13:35;;;;;;;;;1.00;0.00;;;;;29.65;100.00;100543.56;4918643;28;47209;-72
2021/06/21 11:16:17;;;;;;;;;1.00;1.00;;;;;29.97;100.00;100543.09;4918864;28;45437;-72
2021/06/21 11:18:44;;;;;;;;;0.50;0.50;;;;;30.21;100.00;100540.69;4918669;28;45364;-71
2021/06/21 11:21:18;;;;;;;;;0.00;0.00;;;;;30.37;100.00;100538.16;4918736;28;45460;-71
2021/06/21 11:23:48;;;;;;;;;0.00;0.00;;;;;30.68;100.00;100543.16;4918777;28;45393;-71
2021/06/21 11:26:14;;;;;;;;;0.00;0.00;;;;;30.82;100.00;100545.28;4918425;28;45230;-71
2021/06/21 11:28:40;;;;;;;;;0.00;0.00;;;;;30.89;100.00;100542.81;4918982;28;45221;-71
2021/06/21 11:31:18;;;;;;;;;1.50;1.00;;;;;31.08;100.00;100534.50;4917806;28;45367;-71
2021/06/21 11:34:01;;;;;;;;;0.00;0.00;;;;;31.22;100.00;100539.31;4918409;28;46541;-70
2021/06/21 11:36:37;;;;;;;;;0.75;0.00;;;;;31.35;100.00;100539.75;4918160;28;45304;-71
2021/06/21 11:39:30;;;;;;;;;0.00;0.00;;;;;31.77;100.00;100530.84;4921472;28;45421;-71
2021/06/21 11:42:05;;;;;;;;;0.75;0.75;;;;;32.32;100.00;100524.03;4920011;28;47801;-71
2021/06/21 11:44:36;;;;;;;;;0.00;0.00;;;;;32.95;100.00;100524.22;4921808;28;45327;-72
2021/06/21 11:47:02;;;;;;;;;0.00;0.00;;;;;33.42;100.00;100515.31;4921433;28;45406;-72
2021/06/21 11:49:28;;;;;;;;;0.00;0.00;;;;;33.70;100.00;100505.69;4921902;28;45258;-71
2021/06/21 11:52:04;;;;;;;;;0.00;0.00;;;;;34.30;100.00;100525.81;4936171;28;45495;-71
2021/06/21 11:54:36;;;;;;;;;0.00;0.00;;;;;34.73;100.00;100534.31;4921474;28;45481;-71
2021/06/21 11:57:02;;;;;;;;;0.00;0.00;;;;;34.79;100.00;100495.59;4921229;28;45319;-71
2021/06/21 11:59:42;;;;;;;;;0.00;0.00;;;;;35.27;100.00;100526.81;4921684;28;45407;-71
2021/06/21 12:02:09;;;;;;;;;3.00;3.00;;;;;35.63;99.92;100531.50;4921485;28;45324;-72
2021/06/21 12:04:36;;;;;;;;;1.00;1.00;;;;;35.80;97.30;100524.81;4921193;28;46586;-72
2021/06/21 12:07:02;;;;;;;;;0.00;0.00;;;;;35.92;87.62;100527.91;4921581;28;45416;-71
2021/06/21 12:09:28;;;;;;;;;1.00;1.00;;;;;36.01;93.97;100522.16;4921307;28;45366;-71
2021/06/21 12:11:54;;;;;;;;;1.00;0.00;;;;;35.93;88.98;100524.13;4921276;28;45284;-71
2021/06/21 12:14:25;;;;;;;;;1.00;1.00;;;;;35.05;90.64;100523.16;4920902;28;47317;-70
2021/06/21 12:17:02;;;;;;;;;0.00;0.00;;;;;34.04;93.29;100515.34;4920961;28;45416;-70
2021/06/21 12:19:27;;;;;;;;;1.25;0.50;;;;;33.39;97.02;100508.38;4921162;28;45340;-71